Time;durP1;ratioP1;P1;durP2;ratioP2;P2;SDS_P1;SDS_P2;PMS_P1;PMS_P2;Temp;Humidity;BMP_temperature;BMP_pressure;BME280_temperature;BME280_humidity;BME280_pressure;Samples;Min_cycle;Max_cycle;Signal;HPM_P1;HPM_P2
2021/03/26 00:00:27;;;;;;;17.92;8.20;;;9.10;77.20;;;;;;4992499;28;20033;-81
2021/03/26 00:02:53;;;;;;;15.15;7.13;;;9.00;77.30;;;;;;4993637;28;20022;-80
2021/03/26 00:05:19;;;;;;;15.43;7.40;;;8.90;77.40;;;;;;4996886;28;20037;-81
2021/03/26 00:07:45;;;;;;;15.65;7.20;;;8.90;77.50;;;;;;4997229;28;20030;-80
2021/03/26 00:10:13;;;;;;;16.77;7.30;;;8.80;77.40;;;;;;4997178;28;20093;-81
2021/03/26 00:12:40;;;;;;;16.98;7.70;;;8.70;77.40;;;;;;5012270;28;20037;-82
2021/03/26 00:15:07;;;;;;;17.83;8.00;;;8.70;77.50;;;;;;4997197;28;20045;-81
2021/03/26 00:17:33;;;;;;;15.25;7.68;;;8.60;77.50;;;;;;4996107;28;20026;-81
2021/03/26 00:19:59;;;;;;;15.35;7.07;;;8.50;77.50;;;;;;4997080;28;20113;-81
2021/03/26 00:22:25;;;;;;;15.52;7.50;;;8.50;77.60;;;;;;4995715;28;20378;-82
2021/03/26 00:24:51;;;;;;;17.35;7.35;;;8.40;77.50;;;;;;4996034;28;20110;-81
2021/03/26 00:27:17;;;;;;;14.48;7.20;;;8.30;77.50;;;;;;4996902;28;20037;-81
2021/03/26 00:29:42;;;;;;;14.35;7.28;;;8.20;77.50;;;;;;4996619;28;20487;-80
2021/03/26 00:32:08;;;;;;;14.85;7.25;;;8.20;77.50;;;;;;4979312;28;20052;-80
2021/03/26 00:34:34;;;;;;;15.32;7.65;;;8.10;77.50;;;;;;4997033;28;20042;-80
2021/03/26 00:37:00;;;;;;;15.32;7.03;;;8.00;77.50;;;;;;4996871;28;20031;-81
2021/03/26 00:39:26;;;;;;;15.23;7.10;;;8.00;77.70;;;;;;5012023;28;20030;-81
2021/03/26 00:41:51;;;;;;;16.27;7.32;;;7.90;77.80;;;;;;4996561;28;20030;-81
2021/03/26 00:44:17;;;;;;;14.68;7.00;;;7.90;77.90;;;;;;4995352;28;20100;-80
2021/03/26 00:46:43;;;;;;;15.55;6.68;;;7.90;78.00;;;;;;4985154;28;20419;-80
2021/03/26 00:49:09;;;;;;;15.75;7.38;;;7.90;78.10;;;;;;4976788;28;20043;-80
2021/03/26 00:51:36;;;;;;;15.45;7.57;;;7.90;78.30;;;;;;4976983;28;20081;-80
2021/03/26 00:54:02;;;;;;;17.50;7.85;;;7.90;78.30;;;;;;4976870;28;20085;-81
2021/03/26 00:56:28;;;;;;;19.75;7.45;;;7.90;78.30;;;;;;4959714;28;20090;-81
2021/03/26 00:58:53;;;;;;;15.68;6.60;;;7.90;78.30;;;;;;4976931;28;20027;-82
2021/03/26 01:01:19;;;;;;;19.35;7.03;;;7.80;78.00;;;;;;4959624;28;20034;-82
2021/03/26 01:03:45;;;;;;;16.00;6.40;;;7.70;77.90;;;;;;4943845;28;20106;-83
2021/03/26 01:06:10;;;;;;;14.55;7.03;;;7.70;77.80;;;;;;4959808;28;20162;-82
2021/03/26 01:08:38;;;;;;;13.82;6.57;;;7.60;77.90;;;;;;4959812;28;20031;-83
2021/03/26 01:11:21;;;;;;;15.48;7.13;;;7.50;77.60;;;;;;4976518;28;20391;-83
2021/03/26 01:13:47;;;;;;;14.40;6.68;;;7.50;77.80;;;;;;4976496;28;20023;-83
2021/03/26 01:16:14;;;;;;;15.80;6.80;;;7.40;78.00;;;;;;4976325;28;20105;-83
2021/03/26 01:18:43;;;;;;;17.02;6.95;;;7.40;78.30;;;;;;4976457;28;20077;-82
2021/03/26 01:21:11;;;;;;;13.63;6.35;;;7.40;78.60;;;;;;4976551;28;20089;-82
2021/03/26 01:23:37;;;;;;;14.55;7.28;;;7.40;78.70;;;;;;4976237;28;20034;-82
2021/03/26 01:26:03;;;;;;;15.38;6.57;;;7.40;78.40;;;;;;4976499;28;20027;-83
2021/03/26 01:28:30;;;;;;;13.00;6.18;;;7.40;78.30;;;;;;4959162;28;20050;-83
2021/03/26 01:30:56;;;;;;;14.82;7.05;;;7.30;78.40;;;;;;4976337;28;20050;-83
2021/03/26 01:33:23;;;;;;;15.02;7.20;;;7.40;78.90;;;;;;4976129;28;20113;-81
2021/03/26 01:35:49;;;;;;;13.05;6.18;;;7.40;79.20;;;;;;4976233;28;20041;-83
2021/03/26 01:38:15;;;;;;;16.48;7.13;;;7.50;79.40;;;;;;4976469;28;20034;-83
2021/03/26 01:40:49;;;;;;;17.60;6.95;;;7.60;79.50;;;;;;4958940;28;20027;-83
2021/03/26 01:43:24;;;;;;;13.20;6.75;;;7.70;79.30;;;;;;4976249;28;20026;-83
2021/03/26 01:45:51;;;;;;;13.35;6.75;;;7.70;79.00;;;;;;4980411;28;20053;-83
2021/03/26 01:48:26;;;;;;;13.35;6.43;;;7.60;78.90;;;;;;4978651;28;20129;-84
2021/03/26 01:50:52;;;;;;;12.52;6.35;;;7.60;78.80;;;;;;4996006;28;20527;-83
2021/03/26 01:53:19;;;;;;;15.13;6.60;;;7.60;78.80;;;;;;4996484;28;20034;-83
2021/03/26 01:55:48;;;;;;;14.38;6.72;;;7.50;78.70;;;;;;4995819;28;20026;-83
2021/03/26 01:58:23;;;;;;;14.85;7.07;;;7.50;78.70;;;;;;4995308;28;20023;-84
2021/03/26 02:00:54;;;;;;;12.90;6.57;;;7.40;78.60;;;;;;4995232;28;20030;-83
2021/03/26 02:03:30;;;;;;;13.75;6.20;;;7.40;78.70;;;;;;4994911;28;20027;-83
2021/03/26 02:06:06;;;;;;;13.90;6.78;;;7.40;78.70;;;;;;4995129;28;20022;-83
2021/03/26 02:08:34;;;;;;;14.73;6.13;;;7.30;78.70;;;;;;4977573;28;20109;-83
2021/03/26 02:11:35;;;;;;;13.95;6.60;;;7.30;79.00;;;;;;4995049;28;20023;-83
2021/03/26 02:14:04;;;;;;;14.32;6.75;;;7.40;79.30;;;;;;4994880;28;20030;-83
2021/03/26 02:16:30;;;;;;;14.68;6.72;;;7.40;79.50;;;;;;4994748;28;20025;-81
2021/03/26 02:18:55;;;;;;;16.05;6.68;;;7.50;79.60;;;;;;4994772;28;20097;-82
2021/03/26 02:21:28;;;;;;;13.60;6.70;;;7.50;79.50;;;;;;4994840;28;20030;-82
2021/03/26 02:23:55;;;;;;;14.20;6.50;;;7.60;79.60;;;;;;4994887;28;20046;-82
2021/03/26 02:26:25;;;;;;;12.73;6.05;;;7.60;79.60;;;;;;4993969;28;20030;-82
2021/03/26 02:28:52;;;;;;;13.77;6.60;;;7.60;79.60;;;;;;4994610;28;20406;-80
2021/03/26 02:31:19;;;;;;;13.65;7.35;;;7.70;79.80;;;;;;4994318;28;20034;-81
2021/03/26 02:33:46;;;;;;;13.38;6.47;;;7.70;79.70;;;;;;4994738;28;20027;-81
2021/03/26 02:36:17;;;;;;;14.85;6.70;;;7.70;79.60;;;;;;4994474;28;20022;-81
2021/03/26 02:38:48;;;;;;;15.23;7.40;;;7.70;79.60;;;;;;4994592;28;20018;-81
2021/03/26 02:41:27;;;;;;;14.55;7.10;;;7.80;79.70;;;;;;4976843;28;20387;-82
2021/03/26 02:43:58;;;;;;;13.60;6.70;;;7.80;79.70;;;;;;4995034;28;20052;-82
2021/03/26 02:46:57;;;;;;;19.52;7.13;;;7.80;79.60;;;;;;4987208;28;20081;-81
2021/03/26 02:49:38;;;;;;;17.13;7.35;;;7.80;79.50;;;;;;4994029;28;20042;-81
2021/03/26 02:52:10;;;;;;;14.05;6.70;;;7.80;79.30;;;;;;4994198;28;20109;-81
2021/03/26 02:54:50;;;;;;;14.40;7.30;;;7.70;79.40;;;;;;4993016;28;20491;-82
2021/03/26 02:57:21;;;;;;;15.60;6.78;;;7.80;79.60;;;;;;4994231;28;20037;-82
2021/03/26 02:59:56;;;;;;;14.82;6.38;;;7.70;79.40;;;;;;4994229;28;20073;-81
2021/03/26 03:02:24;;;;;;;13.85;6.50;;;7.70;79.30;;;;;;4994168;28;20029;-80
2021/03/26 03:05:20;;;;;;;13.32;6.03;;;7.70;79.10;;;;;;4976599;28;20155;-80
2021/03/26 03:07:55;;;;;;;12.32;5.90;;;7.70;79.30;;;;;;4993927;28;20394;-81
2021/03/26 03:10:36;;;;;;;13.20;6.38;;;7.70;79.50;;;;;;4976610;28;20138;-82
2021/03/26 03:13:14;;;;;;;13.02;6.50;;;7.70;79.60;;;;;;4976844;28;20519;-83
2021/03/26 03:15:46;;;;;;;14.18;5.90;;;7.70;79.40;;;;;;4994156;28;20033;-83
2021/03/26 03:18:40;;;;;;;13.55;6.28;;;7.70;79.60;;;;;;4994035;28;20053;-83
2021/03/26 03:21:20;;;;;;;13.13;6.40;;;7.70;79.80;;;;;;4975196;28;20030;-82
2021/03/26 03:24:05;;;;;;;15.43;6.97;;;7.70;80.00;;;;;;4994104;28;20045;-82
2021/03/26 03:26:55;;;;;;;12.90;6.32;;;7.80;80.00;;;;;;4994010;28;20371;-82
2021/03/26 03:29:20;;;;;;;13.95;6.10;;;7.80;79.80;;;;;;4993648;28;20030;-82
2021/03/26 03:31:54;;;;;;;13.40;6.30;;;7.80;79.80;;;;;;4992681;28;20022;-82
2021/03/26 03:34:26;;;;;;;13.43;5.85;;;7.80;79.80;;;;;;4976921;28;20034;-83
2021/03/26 03:37:08;;;;;;;14.27;6.40;;;7.80;79.70;;;;;;4993920;28;20022;-82
2021/03/26 03:39:58;;;;;;;14.38;6.75;;;7.80;79.70;;;;;;4997805;28;20030;-82
2021/03/26 03:42:56;;;;;;;13.02;5.95;;;7.80;79.70;;;;;;4997545;28;20036;-82
2021/03/26 03:45:45;;;;;;;12.93;6.60;;;7.70;79.60;;;;;;4979189;28;20018;-82
2021/03/26 03:48:29;;;;;;;14.88;6.43;;;7.70;79.60;;;;;;4977501;28;20046;-81
2021/03/26 03:51:16;;;;;;;13.77;6.82;;;7.70;79.70;;;;;;4978096;28;20472;-81
2021/03/26 03:54:07;;;;;;;13.88;6.70;;;7.70;79.70;;;;;;4978201;28;20023;-81
2021/03/26 03:56:45;;;;;;;13.35;6.38;;;7.70;79.80;;;;;;4969106;28;20034;-81
2021/03/26 03:59:17;;;;;;;14.07;6.70;;;7.70;79.90;;;;;;4978008;28;20097;-81
2021/03/26 04:01:50;;;;;;;13.00;6.78;;;7.70;80.00;;;;;;4977885;28;20030;-81
2021/03/26 04:04:21;;;;;;;11.70;5.85;;;7.80;80.10;;;;;;4977636;28;20018;-82
2021/03/26 04:07:03;;;;;;;13.85;6.13;;;7.80;79.90;;;;;;4978142;28;20031;-81
2021/03/26 04:09:46;;;;;;;12.15;6.70;;;7.80;79.90;;;;;;4977841;28;20035;-80
2021/03/26 04:12:17;;;;;;;13.35;6.18;;;7.80;80.00;;;;;;4977744;28;20030;-80
2021/03/26 04:14:54;;;;;;;13.07;6.38;;;7.70;79.80;;;;;;4978026;28;20066;-80
2021/03/26 04:17:45;;;;;;;14.48;5.90;;;7.80;79.80;;;;;;4977574;28;20043;-80
2021/03/26 04:20:26;;;;;;;13.63;6.25;;;7.70;79.90;;;;;;4977885;28;20095;-81
2021/03/26 04:23:01;;;;;;;13.05;6.47;;;7.70;80.00;;;;;;4977646;28;20149;-81
2021/03/26 04:25:31;;;;;;;14.20;5.63;;;7.70;79.80;;;;;;4977561;28;20451;-81
2021/03/26 04:28:13;;;;;;;12.95;6.55;;;7.70;79.90;;;;;;4977396;28;20029;-81
2021/03/26 04:30:44;;;;;;;13.88;6.30;;;7.70;79.90;;;;;;4977392;28;20611;-81
2021/03/26 04:33:10;;;;;;;12.98;6.03;;;7.70;79.90;;;;;;4977337;28;20026;-81
2021/03/26 04:35:36;;;;;;;12.98;6.57;;;7.70;79.90;;;;;;4977118;28;20430;-81
2021/03/26 04:38:30;;;;;;;12.07;6.45;;;7.70;79.90;;;;;;4977344;28;20027;-80
2021/03/26 04:41:15;;;;;;;14.68;6.32;;;7.70;80.60;;;;;;4977214;28;20031;-80
2021/03/26 04:43:51;;;;;;;14.40;6.22;;;7.70;80.00;;;;;;4977177;28;20015;-81
2021/03/26 04:46:30;;;;;;;13.10;6.03;;;7.70;80.10;;;;;;4985149;28;20417;-81
2021/03/26 04:48:59;;;;;;;14.52;7.03;;;7.80;80.20;;;;;;4978402;28;20042;-81
2021/03/26 04:51:42;;;;;;;18.48;8.73;;;7.80;80.20;;;;;;4996513;28;20052;-81
2021/03/26 04:54:39;;;;;;;13.18;6.53;;;7.80;80.20;;;;;;4996464;28;20466;-81
2021/03/26 04:57:14;;;;;;;16.95;7.07;;;7.80;80.20;;;;;;4969105;28;20034;-83
2021/03/26 05:00:00;;;;;;;13.68;6.38;;;7.70;80.10;;;;;;4996436;28;20526;-83
2021/03/26 05:02:30;;;;;;;15.25;6.65;;;7.70;80.10;;;;;;4996411;28;20022;-84
2021/03/26 05:04:58;;;;;;;13.18;6.05;;;7.70;79.80;;;;;;4978992;28;20410;-84
2021/03/26 05:07:32;;;;;;;13.48;6.40;;;7.60;79.60;;;;;;4996493;28;20026;-83
2021/03/26 05:10:03;;;;;;;13.55;6.40;;;7.60;79.80;;;;;;4978573;28;20038;-83
2021/03/26 05:12:40;;;;;;;12.63;6.15;;;7.70;80.10;;;;;;4996127;28;20113;-83
2021/03/26 05:15:15;;;;;;;12.57;6.47;;;7.70;80.40;;;;;;4996229;28;20026;-83
2021/03/26 05:17:55;;;;;;;19.80;6.75;;;7.70;80.40;;;;;;4995671;28;20022;-84
2021/03/26 05:20:32;;;;;;;15.57;7.85;;;7.80;80.60;;;;;;4996243;28;20375;-84
2021/03/26 05:23:21;;;;;;;12.48;6.47;;;7.80;81.10;;;;;;4996632;28;20088;-83
2021/03/26 05:25:49;;;;;;;13.45;6.72;;;7.90;80.60;;;;;;4996514;28;20061;-81
2021/03/26 05:28:21;;;;;;;14.35;6.93;;;7.90;80.50;;;;;;4995652;28;20026;-81
2021/03/26 05:30:48;;;;;;;13.55;6.78;;;7.90;80.40;;;;;;4995972;28;20513;-81
2021/03/26 05:33:44;;;;;;;13.38;6.63;;;7.90;80.50;;;;;;4978425;28;20027;-81
2021/03/26 05:36:27;;;;;;;13.70;6.78;;;8.00;80.80;;;;;;4996303;28;20049;-81
2021/03/26 05:39:01;;;;;;;13.63;6.50;;;8.10;80.90;;;;;;4978276;28;20037;-81
2021/03/26 05:42:09;;;;;;;15.93;7.68;;;8.10;80.90;;;;;;4978086;28;20027;-81
2021/03/26 05:44:44;;;;;;;13.30;6.88;;;8.20;81.00;;;;;;4995844;28;20042;-82
2021/03/26 05:47:27;;;;;;;13.98;6.60;;;8.20;80.90;;;;;;4980239;28;20027;-81
2021/03/26 05:50:30;;;;;;;14.63;7.18;;;8.30;80.80;;;;;;4976222;28;20110;-82
2021/03/26 05:53:23;;;;;;;14.63;6.65;;;8.30;80.80;;;;;;4975940;28;20034;-81
2021/03/26 05:55:51;;;;;;;14.90;6.82;;;8.40;81.00;;;;;;4976001;28;20027;-82
2021/03/26 05:58:34;;;;;;;14.98;7.05;;;8.40;80.90;;;;;;4975973;28;20495;-82
2021/03/26 06:01:52;;;;;;;12.93;6.55;;;8.40;80.60;;;;;;4976422;28;20085;-82
2021/03/26 06:04:42;;;;;;;15.90;6.97;;;8.40;80.30;;;;;;4881740;29;20077;-82
2021/03/26 06:07:29;;;;;;;16.42;7.50;;;8.40;80.60;;;;;;4972741;28;20034;-82
2021/03/26 06:10:16;;;;;;;13.38;6.60;;;8.40;80.70;;;;;;4958249;28;20515;-82
2021/03/26 06:13:09;;;;;;;17.60;7.43;;;8.50;81.00;;;;;;4975839;28;20085;-82
2021/03/26 06:15:54;;;;;;;14.90;7.95;;;8.50;80.50;;;;;;4975326;28;20027;-86
2021/03/26 06:18:25;;;;;;;14.23;7.03;;;8.40;80.30;;;;;;4975404;28;20038;-81
2021/03/26 06:21:26;;;;;;;14.10;7.43;;;8.50;81.10;;;;;;4975717;28;20022;-82
2021/03/26 06:24:20;;;;;;;15.50;8.10;;;8.60;81.00;;;;;;4975842;28;20038;-82
2021/03/26 06:27:10;;;;;;;18.02;8.32;;;8.60;80.70;;;;;;4975737;28;20038;-83
2021/03/26 06:29:47;;;;;;;18.45;8.25;;;8.60;80.60;;;;;;4975394;28;20061;-82
2021/03/26 06:32:43;;;;;;;16.05;7.60;;;8.60;80.50;;;;;;4975313;28;20384;-81
2021/03/26 06:35:39;;;;;;;17.40;8.02;;;8.50;80.60;;;;;;4975707;28;20027;-81
2021/03/26 06:38:27;;;;;;;15.82;7.82;;;8.50;80.60;;;;;;4975117;28;20356;-83
2021/03/26 06:41:29;;;;;;;15.15;7.28;;;8.60;80.70;;;;;;4957617;28;20537;-80
2021/03/26 06:44:17;;;;;;;14.07;7.05;;;8.50;80.70;;;;;;4975055;28;20037;-81
2021/03/26 06:47:06;;;;;;;15.95;8.68;;;8.60;80.80;;;;;;4986312;28;20049;-83
2021/03/26 06:49:51;;;;;;;13.40;7.20;;;8.60;80.80;;;;;;4994073;28;20049;-84
2021/03/26 06:52:35;;;;;;;;;;;8.60;81.10;;;;;;4977563;28;20030;-86
2021/03/26 06:55:20;;;;;;;15.43;7.05;;;8.70;81.60;;;;;;4976960;28;19906;-85
2021/03/26 06:58:00;;;;;;;15.25;7.05;;;8.90;82.10;;;;;;4994379;28;20022;-85
2021/03/26 07:00:44;;;;;;;16.05;7.95;;;9.10;82.00;;;;;;4994519;28;20022;-89
2021/03/26 07:03:31;;;;;;;14.68;7.10;;;9.20;81.50;;;;;;4992971;28;20026;-89
2021/03/26 07:06:34;;;;;;;13.02;7.07;;;9.30;81.70;;;;;;4977056;28;20033;-83
2021/03/26 07:12:51;;;;;;;14.25;6.53;;;9.60;82.00;;;;;;4993631;28;20074;-86
2021/03/26 07:15:54;;;;;;;13.90;6.57;;;9.80;82.10;;;;;;4976345;28;20077;-87
2021/03/26 07:28:56;;;;;;;15.75;8.23;;;10.60;81.80;;;;;;4922045;28;20121;-87
2021/03/26 07:31:59;;;;;;;15.98;7.47;;;10.80;82.20;;;;;;4993707;28;20030;-83
2021/03/26 07:34:47;;;;;;;16.83;6.45;;;11.00;82.60;;;;;;4976352;28;20038;-83
2021/03/26 07:37:47;;;;;;;13.90;7.25;;;11.20;82.40;;;;;;4992670;28;20114;-88
2021/03/26 07:40:47;;;;;;;13.48;7.28;;;11.30;82.40;;;;;;4946997;28;20034;-83
2021/03/26 07:43:28;;;;;;;14.98;6.72;;;11.50;82.30;;;;;;4976278;28;20113;-83
2021/03/26 07:46:12;;;;;;;15.80;7.55;;;11.60;82.00;;;;;;4988658;28;20025;-83
2021/03/26 07:49:08;;;;;;;14.32;7.43;;;11.70;82.30;;;;;;4974305;28;20043;-81
2021/03/26 07:51:43;;;;;;;14.20;6.97;;;11.80;81.70;;;;;;4956986;28;20371;-87
2021/03/26 07:54:37;;;;;;;;;;;;;;;;;;;;;
2021/03/26 07:57:37;;;;;;;14.38;7.22;;;11.60;81.10;;;;;;4974023;28;20364;-90
2021/03/26 08:00:32;;;;;;;13.50;6.75;;;11.70;81.00;;;;;;4957210;28;20058;-89
2021/03/26 08:03:20;;;;;;;14.05;6.75;;;11.60;81.00;;;;;;4956935;28;20479;-90
2021/03/26 08:06:26;;;;;;;16.02;6.80;;;11.60;81.10;;;;;;4957108;28;20023;-90
2021/03/26 08:09:13;;;;;;;15.68;7.40;;;11.60;81.20;;;;;;4921581;28;20045;-89
2021/03/26 08:11:52;;;;;;;15.23;6.95;;;11.60;81.20;;;;;;4957232;28;20031;-89
2021/03/26 08:14:26;;;;;;;14.93;6.82;;;11.70;81.20;;;;;;4957049;28;20113;-90
2021/03/26 08:17:07;;;;;;;;;;;11.70;81.00;;;;;;4957248;28;20027;-84
2021/03/26 08:19:59;;;;;;;13.90;6.65;;;11.70;81.30;;;;;;4956977;28;19906;-86
2021/03/26 08:22:50;;;;;;;13.32;7.28;;;11.70;81.00;;;;;;4956587;28;20086;-84
2021/03/26 08:25:36;;;;;;;15.73;6.93;;;11.80;81.30;;;;;;4958620;28;20482;-84
2021/03/26 08:28:36;;;;;;;19.45;7.10;;;11.80;81.40;;;;;;4960540;28;20027;-85
2021/03/26 08:31:13;;;;;;;13.32;6.70;;;11.80;81.40;;;;;;4960996;28;20430;-84
2021/03/26 08:33:42;;;;;;;14.82;6.85;;;11.90;81.50;;;;;;4964602;28;20027;-85
2021/03/26 08:36:31;;;;;;;15.18;7.63;;;12.00;81.70;;;;;;4963225;28;20387;-84
2021/03/26 08:39:05;;;;;;;15.35;6.65;;;12.10;81.70;;;;;;4977648;28;20422;-84
2021/03/26 08:41:38;;;;;;;11.65;6.25;;;12.20;81.90;;;;;;4959926;28;20037;-90
2021/03/26 08:44:05;;;;;;;10.88;5.38;;;12.40;82.40;;;;;;4959950;28;20077;-85
2021/03/26 08:46:53;;;;;;;14.80;7.80;;;12.60;82.80;;;;;;4970016;28;20121;-86
2021/03/26 08:49:53;;;;;;;11.85;6.00;;;12.80;83.10;;;;;;4978848;28;20034;-88
2021/03/26 08:52:49;;;;;;;13.20;5.68;;;13.20;83.30;;;;;;4979169;28;20034;-86
2021/03/26 08:55:48;;;;;;;12.45;6.40;;;13.50;83.50;;;;;;4978740;28;20030;-81
2021/03/26 08:58:39;;;;;;;14.93;6.97;;;13.80;82.90;;;;;;4979223;28;20026;-81
2021/03/26 09:01:26;;;;;;;15.65;6.30;;;13.90;82.50;;;;;;4996369;28;20030;-81
2021/03/26 09:04:25;;;;;;;13.40;6.57;;;14.00;82.50;;;;;;4996239;28;20018;-81
2021/03/26 09:07:06;;;;;;;15.40;6.85;;;14.30;83.00;;;;;;4996118;28;20117;-83
2021/03/26 09:10:12;;;;;;;12.70;6.50;;;14.40;82.00;;;;;;4978286;28;20043;-83
2021/03/26 09:12:54;;;;;;;13.32;6.55;;;14.40;81.50;;;;;;4979043;28;20030;-82
2021/03/26 09:15:42;;;;;;;11.07;5.57;;;14.40;81.20;;;;;;4996074;28;20109;-82
2021/03/26 09:18:20;;;;;;;11.07;5.88;;;14.40;81.50;;;;;;4996234;28;20133;-83
2021/03/26 09:21:32;;;;;;;15.57;6.03;;;14.50;81.90;;;;;;4995885;28;20057;-83
2021/03/26 09:24:32;;;;;;;13.93;5.30;;;14.70;82.10;;;;;;4995093;28;20046;-82
2021/03/26 09:27:31;;;;;;;10.63;5.40;;;14.80;82.10;;;;;;4994533;28;20041;-84
2021/03/26 09:44:55;;;;;;;11.48;4.75;;;15.50;81.80;;;;;;4993844;28;20042;-79
2021/03/26 09:47:42;;;;;;;10.85;5.40;;;15.60;82.00;;;;;;4995352;28;20022;-86
2021/03/26 09:50:38;;;;;;;13.80;7.68;;;15.80;81.90;;;;;;4995385;28;20108;-81
2021/03/26 09:53:11;;;;;;;10.40;5.45;;;16.00;81.70;;;;;;4977774;28;20105;-79
2021/03/26 09:55:40;;;;;;;11.77;4.30;;;16.00;81.60;;;;;;4995644;28;20027;-80
2021/03/26 09:58:11;;;;;;;10.45;4.47;;;16.20;81.90;;;;;;4994968;28;20015;-82
2021/03/26 10:00:52;;;;;;;10.48;4.68;;;16.20;81.60;;;;;;4995416;28;20026;-83
2021/03/26 10:03:55;;;;;;;8.40;3.72;;;16.40;81.60;;;;;;4995031;28;20129;-82
2021/03/26 10:06:41;;;;;;;8.50;3.72;;;16.50;81.40;;;;;;4995005;28;20029;-80
2021/03/26 10:09:36;;;;;;;8.98;3.92;;;16.60;81.00;;;;;;4994800;28;20032;-82
2021/03/26 10:12:17;;;;;;;8.63;3.60;;;16.60;80.90;;;;;;4977899;28;20206;-84
2021/03/26 10:14:55;;;;;;;8.88;3.90;;;16.70;81.30;;;;;;4977619;28;20037;-87
2021/03/26 10:17:42;;;;;;;9.27;4.20;;;17.00;82.00;;;;;;4977623;28;20019;-85
2021/03/26 10:23:37;;;;;;;11.63;4.30;;;17.60;82.00;;;;;;4978570;28;20026;-87
2021/03/26 10:26:29;;;;;;;10.13;4.90;;;17.90;81.80;;;;;;4977556;28;20388;-83
2021/03/26 10:29:19;;;;;;;10.18;4.05;;;18.20;82.10;;;;;;4956731;28;20046;-84
2021/03/26 10:32:24;;;;;;;9.82;3.40;;;18.60;82.60;;;;;;4977435;28;20022;-85
2021/03/26 10:35:06;;;;;;;12.57;4.90;;;18.80;80.30;;;;;;4977231;28;20080;-86
2021/03/26 10:38:36;;;;;;;10.57;4.60;;;19.10;81.90;;;;;;4976958;28;20113;-86
2021/03/26 10:41:07;;;;;;;10.48;4.45;;;19.50;83.20;;;;;;4899428;29;20035;-86
2021/03/26 10:43:49;;;;;;;10.50;3.80;;;19.90;81.70;;;;;;4978408;28;20034;-82
2021/03/26 10:46:49;;;;;;;9.80;4.88;;;20.20;82.60;;;;;;5005635;28;20057;-83
2021/03/26 10:49:42;;;;;;;9.40;4.35;;;20.50;82.60;;;;;;4974849;28;20108;-86
2021/03/26 10:52:36;;;;;;;10.60;4.10;;;20.80;80.20;;;;;;4977151;28;20478;-87
2021/03/26 10:55:23;;;;;;;10.15;4.05;;;20.80;80.70;;;;;;4976691;28;20026;-87
2021/03/26 10:58:28;;;;;;;9.77;4.20;;;20.90;80.40;;;;;;4976854;28;20023;-86
2021/03/26 11:00:59;;;;;;;;;;;20.90;79.70;;;;;;4994391;28;20375;-86
2021/03/26 11:03:44;;;;;;;10.20;4.50;;;21.00;79.90;;;;;;4976923;28;19952;-86
2021/03/26 11:06:40;;;;;;;11.65;5.03;;;20.90;78.90;;;;;;4976646;28;20018;-86
2021/03/26 11:09:15;;;;;;;11.30;5.38;;;20.70;78.60;;;;;;4976857;28;20069;-87
2021/03/26 11:12:05;;;;;;;9.90;4.50;;;20.50;77.80;;;;;;4977298;28;20025;-87
2021/03/26 11:14:59;;;;;;;11.38;4.45;;;20.30;77.70;;;;;;4976920;28;20026;-87
2021/03/26 11:17:48;;;;;;;10.63;4.80;;;20.30;79.30;;;;;;4976645;28;20034;-86
2021/03/26 11:20:39;;;;;;;11.07;4.97;;;20.40;79.70;;;;;;4976505;28;20024;-86
2021/03/26 11:27:13;;;;;;;10.73;4.63;;;21.70;84.00;;;;;;4940018;28;20040;-86
2021/03/26 11:29:43;;;;;;;11.17;4.80;;;23.00;86.30;;;;;;4976081;28;20133;-82
2021/03/26 11:32:28;;;;;;;10.80;4.70;;;23.70;85.70;;;;;;4993988;28;20026;-88
2021/03/26 11:35:04;;;;;;;11.55;4.70;;;24.30;84.40;;;;;;4976440;28;20367;-88
2021/03/26 11:37:59;;;;;;;10.30;4.60;;;24.90;84.20;;;;;;4976652;28;20026;-89
2021/03/26 11:43:56;;;;;;;11.32;4.53;;;25.60;82.90;;;;;;4937761;28;20107;-86
2021/03/26 11:46:25;;;;;;;8.83;4.40;;;26.10;82.70;;;;;;4985584;28;20053;-85
2021/03/26 11:49:13;;;;;;;8.85;4.20;;;25.90;78.50;;;;;;4996210;28;20122;-85
2021/03/26 11:52:00;;;;;;;9.70;4.50;;;25.80;80.80;;;;;;4996133;28;20358;-85
2021/03/26 11:54:51;;;;;;;10.90;5.25;;;25.80;80.70;;;;;;4996101;28;20351;-85
2021/03/26 11:57:38;;;;;;;11.13;4.32;;;25.90;80.10;;;;;;5012227;28;20018;-85
2021/03/26 12:00:23;;;;;;;9.90;4.40;;;26.40;81.60;;;;;;5016220;28;20053;-85
2021/03/26 12:03:20;;;;;;;10.10;4.30;;;26.20;77.20;;;;;;4999333;28;20073;-85
2021/03/26 12:06:24;;;;;;;9.10;4.30;;;25.50;77.10;;;;;;5016761;28;20022;-85
2021/03/26 12:09:27;;;;;;;10.32;4.10;;;25.90;81.80;;;;;;4991764;28;20048;-83
2021/03/26 12:12:22;;;;;;;11.35;4.72;;;26.50;82.10;;;;;;5014671;28;20100;-86
2021/03/26 12:14:54;;;;;;;9.85;4.65;;;26.10;74.60;;;;;;4999032;28;20030;-85
2021/03/26 12:17:44;;;;;;;9.93;4.63;;;25.80;78.70;;;;;;5016614;28;20050;-84
2021/03/26 12:20:30;;;;;;;10.02;4.65;;;26.40;82.80;;;;;;5016652;28;20363;-82
2021/03/26 12:23:04;;;;;;;8.82;3.97;;;27.20;82.90;;;;;;5016872;28;20029;-86
2021/03/26 12:26:00;;;;;;;11.25;4.45;;;27.80;82.10;;;;;;5016210;28;20022;-81
2021/03/26 12:28:29;;;;;;;7.68;3.70;;;28.10;78.60;;;;;;4988551;28;20038;-82
2021/03/26 12:31:10;;;;;;;7.43;3.40;;;28.00;78.00;;;;;;5016467;28;20072;-83
2021/03/26 12:33:43;;;;;;;8.88;4.05;;;28.10;79.80;;;;;;5016472;28;20056;-82
2021/03/26 12:36:15;;;;;;;9.10;4.45;;;28.20;77.50;;;;;;5016418;28;20051;-82
2021/03/26 12:39:10;;;;;;;8.60;3.90;;;28.00;76.60;;;;;;4998793;28;20029;-82
2021/03/26 12:41:48;;;;;;;9.30;3.97;;;27.70;74.40;;;;;;4989597;28;20038;-80
2021/03/26 12:44:26;;;;;;;9.80;4.57;;;26.90;73.00;;;;;;5016058;28;20526;-81
2021/03/26 12:47:09;;;;;;;10.35;4.45;;;26.70;74.20;;;;;;5003113;28;20382;-81
2021/03/26 12:49:41;;;;;;;8.93;4.27;;;26.60;74.30;;;;;;4996841;28;20034;-81
2021/03/26 12:52:31;;;;;;;8.18;3.83;;;26.10;73.00;;;;;;4996511;28;20030;-81
2021/03/26 12:55:02;;;;;;;9.27;4.20;;;26.00;76.20;;;;;;4996256;28;20033;-81
2021/03/26 12:57:48;;;;;;;10.40;4.30;;;26.80;79.80;;;;;;4996746;28;20034;-81
2021/03/26 13:00:44;;;;;;;9.45;3.75;;;27.70;78.50;;;;;;4995880;28;20073;-81
2021/03/26 13:03:19;;;;;;;8.77;4.10;;;28.40;79.90;;;;;;4996182;28;20026;-81
2021/03/26 13:06:04;;;;;;;8.55;3.75;;;29.00;78.30;;;;;;4995959;28;20077;-81
2021/03/26 13:08:33;;;;;;;8.48;3.63;;;29.50;78.40;;;;;;4996096;28;20065;-81
2021/03/26 13:11:20;;;;;;;8.82;4.05;;;29.80;76.30;;;;;;4978092;28;20553;-81
2021/03/26 13:13:53;;;;;;;9.30;4.05;;;29.50;74.10;;;;;;4996110;28;20022;-81
2021/03/26 13:16:27;;;;;;;11.07;3.78;;;29.60;75.00;;;;;;4995963;28;20493;-81
2021/03/26 13:18:59;;;;;;;9.90;4.30;;;29.70;72.40;;;;;;4995912;28;20030;-82
2021/03/26 13:21:41;;;;;;;8.18;3.85;;;29.40;73.80;;;;;;4995704;28;20027;-80
2021/03/26 13:24:25;;;;;;;10.93;4.38;;;29.10;69.60;;;;;;4978386;28;20033;-80
2021/03/26 13:27:10;;;;;;;;;;;28.90;74.70;;;;;;4996233;28;20038;-80
2021/03/26 13:29:37;;;;;;;9.50;4.40;;;30.00;80.80;;;;;;4995353;28;20278;-80
2021/03/26 13:32:08;;;;;;;8.32;3.80;;;30.90;76.70;;;;;;4995789;28;20023;-81
2021/03/26 13:34:39;;;;;;;9.38;4.00;;;31.60;76.80;;;;;;4977870;28;20034;-81
2021/03/26 13:37:23;;;;;;;8.05;3.47;;;32.20;76.50;;;;;;4995731;28;20050;-81
2021/03/26 13:39:52;;;;;;;8.35;3.97;;;32.60;75.70;;;;;;4995575;28;20019;-81
2021/03/26 13:42:34;;;;;;;8.43;3.72;;;33.10;75.50;;;;;;4995726;28;20037;-81
2021/03/26 13:45:10;;;;;;;8.60;3.78;;;33.30;73.70;;;;;;4995313;28;20053;-81
2021/03/26 13:47:54;;;;;;;8.80;3.50;;;33.10;69.40;;;;;;5014345;28;20470;-81
2021/03/26 13:50:23;;;;;;;7.55;3.75;;;32.20;66.10;;;;;;4997463;28;20107;-81
2021/03/26 13:53:10;;;;;;;7.95;3.63;;;31.60;70.40;;;;;;5015378;28;20026;-82
2021/03/26 13:55:48;;;;;;;8.25;4.10;;;31.80;72.50;;;;;;5015100;28;20119;-82
2021/03/26 13:58:21;;;;;;;8.63;3.60;;;32.50;74.80;;;;;;5014988;28;20026;-81
2021/03/26 14:00:49;;;;;;;6.97;2.88;;;33.50;74.50;;;;;;5014934;28;20037;-81
2021/03/26 14:03:33;;;;;;;8.95;3.90;;;33.90;71.50;;;;;;5014497;28;20069;-81
2021/03/26 14:06:07;;;;;;;8.45;3.83;;;33.00;62.40;;;;;;5014708;28;20033;-81
2021/03/26 14:08:47;;;;;;;6.57;3.10;;;31.50;65.30;;;;;;5014566;28;20033;-81
2021/03/26 14:11:21;;;;;;;8.32;3.53;;;31.70;70.10;;;;;;5014575;28;20091;-81
2021/03/26 14:14:00;;;;;;;8.32;3.60;;;32.00;68.40;;;;;;5014499;28;20544;-81
2021/03/26 14:16:46;;;;;;;8.55;3.75;;;31.60;67.60;;;;;;5014456;28;20030;-81
2021/03/26 14:19:27;;;;;;;7.10;3.60;;;32.50;72.20;;;;;;5003510;28;20038;-81
2021/03/26 14:21:57;;;;;;;8.30;3.67;;;33.20;71.10;;;;;;5013497;28;20425;-81
2021/03/26 14:24:36;;;;;;;10.10;5.82;;;33.40;65.80;;;;;;5014427;28;20405;-80
2021/03/26 14:27:13;;;;;;;9.02;4.07;;;32.50;60.80;;;;;;5014266;28;20018;-81
2021/03/26 14:29:50;;;;;;;9.10;4.20;;;30.70;58.70;;;;;;5014167;28;20041;-80
2021/03/26 14:32:22;;;;;;;9.43;4.70;;;29.90;62.50;;;;;;5014052;28;20018;-80